createdAt,value
2019-05-19T00:01:33.776Z,27.03
2019-05-19T00:04:03.191Z,29.30
2019-05-19T00:06:32.590Z,26.80
2019-05-19T00:09:02.961Z,29.50
2019-05-19T00:11:31.802Z,28.47
2019-05-19T00:14:01.174Z,30.80
2019-05-19T00:16:30.072Z,29.70
2019-05-19T00:18:58.841Z,31.83
2019-05-19T00:21:27.668Z,30.40
2019-05-19T00:23:59.756Z,32.50
2019-05-19T00:26:27.865Z,31.53
2019-05-19T00:28:56.869Z,32.40
2019-05-19T00:31:25.852Z,34.17
2019-05-19T00:33:54.689Z,32.57
2019-05-19T00:36:23.699Z,34.03
2019-05-19T00:38:52.501Z,34.60
2019-05-19T00:41:21.398Z,32.67
2019-05-19T00:43:50.786Z,33.03
2019-05-19T00:46:19.642Z,34.80
2019-05-19T00:48:48.421Z,34.13
2019-05-19T00:51:18.129Z,36.00
2019-05-19T00:53:47.069Z,37.97
2019-05-19T00:56:16.181Z,38.67
2019-05-19T00:58:47.503Z,39.40
2019-05-19T01:01:17.674Z,38.60
2019-05-19T01:03:46.470Z,36.20
2019-05-19T01:06:15.272Z,38.17
2019-05-19T01:08:44.025Z,39.73
2019-05-19T01:11:12.838Z,39.17
2019-05-19T01:13:42.621Z,41.40
2019-05-19T01:16:11.858Z,38.93
2019-05-19T01:18:40.644Z,37.73
2019-05-19T01:21:09.480Z,39.70
2019-05-19T01:23:38.312Z,38.67
2019-05-19T01:26:07.125Z,39.40
2019-05-19T01:28:35.967Z,36.80
2019-05-19T01:31:04.921Z,37.00
2019-05-19T01:33:35.411Z,38.70
2019-05-19T01:36:04.999Z,39.20
2019-05-19T01:38:34.517Z,35.93
2019-05-19T01:41:03.348Z,38.83
2019-05-19T01:43:33.797Z,38.67
2019-05-19T01:46:02.665Z,40.43
2019-05-19T01:48:31.454Z,38.77
2019-05-19T01:51:00.231Z,41.83
2019-05-19T01:53:29.802Z,43.63
2019-05-19T01:55:58.630Z,42.57
2019-05-19T01:58:27.479Z,40.73
2019-05-19T02:00:56.279Z,40.40
2019-05-19T02:03:25.123Z,44.20
2019-05-19T02:05:54.036Z,43.00
2019-05-19T02:08:23.999Z,43.20
2019-05-19T02:10:52.869Z,44.33
2019-05-19T02:13:22.486Z,42.87
2019-05-19T02:15:52.118Z,45.37
2019-05-19T02:18:20.935Z,46.10
2019-05-19T02:20:51.353Z,43.50
2019-05-19T02:23:21.505Z,44.27
2019-05-19T02:25:50.365Z,43.67
2019-05-19T02:28:19.194Z,46.20
2019-05-19T02:30:48.738Z,47.33
2019-05-19T02:33:17.617Z,44.00
2019-05-19T02:35:46.344Z,43.07
2019-05-19T02:38:16.584Z,44.07
2019-05-19T02:40:48.236Z,43.97
2019-05-19T02:43:19.120Z,43.87
2019-05-19T02:45:49.789Z,44.20
2019-05-19T02:48:21.088Z,43.00
2019-05-19T02:50:52.969Z,43.40
2019-05-19T02:53:22.867Z,45.23
2019-05-19T02:55:53.489Z,45.33
2019-05-19T02:58:22.587Z,45.50
2019-05-19T03:00:51.425Z,49.00
2019-05-19T03:03:20.198Z,47.00
2019-05-19T03:05:48.989Z,46.57
2019-05-19T03:08:18.138Z,43.60
2019-05-19T03:10:46.939Z,44.47
2019-05-19T03:13:15.718Z,45.03
2019-05-19T03:15:44.530Z,45.63
2019-05-19T03:18:13.944Z,48.63
2019-05-19T03:20:42.917Z,44.37
2019-05-19T03:23:11.768Z,45.60
2019-05-19T03:25:44.091Z,47.53
2019-05-19T03:28:11.235Z,46.60
2019-05-19T03:30:40.369Z,47.30
2019-05-19T03:33:10.810Z,46.50
2019-05-19T03:35:39.627Z,46.70
2019-05-19T03:38:08.445Z,47.23
2019-05-19T03:40:37.756Z,51.27
2019-05-19T03:43:06.548Z,53.60
2019-05-19T03:45:35.307Z,53.00
2019-05-19T03:48:05.006Z,52.27
2019-05-19T03:50:33.790Z,52.03
2019-05-19T03:53:02.595Z,52.70
2019-05-19T03:55:31.401Z,50.23
2019-05-19T03:58:00.202Z,50.83
2019-05-19T04:00:29.016Z,50.53
2019-05-19T04:02:57.733Z,50.77
2019-05-19T04:05:26.554Z,50.83
2019-05-19T04:07:55.307Z,53.20
2019-05-19T04:10:24.112Z,53.73
2019-05-19T04:12:52.936Z,53.10
2019-05-19T04:15:21.729Z,52.07
2019-05-19T04:17:50.590Z,54.97
2019-05-19T04:20:19.659Z,53.50
2019-05-19T04:22:49.229Z,54.87
2019-05-19T04:25:18.109Z,56.33
2019-05-19T04:27:46.894Z,50.93
2019-05-19T04:30:16.017Z,53.93
2019-05-19T04:32:46.470Z,52.13
2019-05-19T04:35:15.281Z,53.20
2019-05-19T04:37:44.147Z,51.50
2019-05-19T04:40:14.136Z,53.07
2019-05-19T04:42:43.010Z,46.10
2019-05-19T04:45:12.025Z,49.00
2019-05-19T04:47:40.709Z,45.30
2019-05-19T04:50:10.042Z,44.33
2019-05-19T04:52:38.752Z,46.27
2019-05-19T04:55:08.027Z,43.60
2019-05-19T04:57:37.284Z,46.20
2019-05-19T05:00:07.498Z,42.70
2019-05-19T05:02:36.544Z,41.87
2019-05-19T05:05:06.635Z,41.60
2019-05-19T05:07:35.395Z,40.20
2019-05-19T05:10:05.261Z,39.70
2019-05-19T05:12:34.533Z,38.53
2019-05-19T05:15:03.593Z,36.80
2019-05-19T05:17:32.356Z,35.43
2019-05-19T05:20:01.297Z,34.10
2019-05-19T05:22:30.232Z,33.77
2019-05-19T05:24:58.936Z,32.33
2019-05-19T05:27:27.755Z,31.67
2019-05-19T05:29:57.733Z,31.43
2019-05-19T05:32:26.608Z,32.30
2019-05-19T05:34:55.411Z,32.70
2019-05-19T05:37:24.339Z,30.47
2019-05-19T05:39:53.344Z,30.13
2019-05-19T05:42:22.170Z,29.03
2019-05-19T05:44:51.375Z,28.50
2019-05-19T05:47:20.424Z,27.40
2019-05-19T05:49:50.316Z,28.20
2019-05-19T05:52:19.346Z,28.60
2019-05-19T05:54:48.754Z,28.97
2019-05-19T05:57:17.645Z,29.00
2019-05-19T05:59:46.422Z,29.20
2019-05-19T06:02:15.081Z,30.73
2019-05-19T06:04:43.932Z,31.10
2019-05-19T06:07:12.792Z,32.70
2019-05-19T06:09:44.603Z,30.47
2019-05-19T06:12:13.373Z,30.90
2019-05-19T06:14:42.262Z,33.60
2019-05-19T06:17:11.183Z,34.07
2019-05-19T06:19:40.031Z,31.97
2019-05-19T06:22:08.880Z,31.00
2019-05-19T06:24:38.404Z,30.13
2019-05-19T06:27:07.207Z,31.60
2019-05-19T06:29:36.043Z,31.23
2019-05-19T06:32:06.456Z,30.07
2019-05-19T06:34:35.768Z,30.57
2019-05-19T06:37:04.573Z,31.17
2019-05-19T06:39:33.379Z,31.43
2019-05-19T06:42:02.905Z,30.03
2019-05-19T06:44:31.663Z,28.40
2019-05-19T06:47:00.452Z,28.53
2019-05-19T06:49:29.364Z,26.93
2019-05-19T06:51:58.471Z,28.83
2019-05-19T06:54:27.400Z,26.30
2019-05-19T06:56:56.233Z,28.00
2019-05-19T06:59:25.046Z,28.13
2019-05-19T07:01:53.828Z,26.30
2019-05-19T07:04:22.603Z,24.80
2019-05-19T07:06:51.458Z,24.97
2019-05-19T07:09:20.696Z,25.70
2019-05-19T07:11:49.604Z,22.90
2019-05-19T07:14:18.456Z,22.70
2019-05-19T07:16:47.628Z,20.63
2019-05-19T07:19:16.370Z,19.90
2019-05-19T07:21:45.228Z,21.60
2019-05-19T07:24:14.035Z,21.60
2019-05-19T07:26:43.411Z,21.90
2019-05-19T07:29:12.341Z,19.83
2019-05-19T07:31:41.828Z,20.97
2019-05-19T07:34:11.292Z,20.70
2019-05-19T07:36:40.711Z,19.77
2019-05-19T07:39:09.519Z,18.13
2019-05-19T07:41:38.341Z,18.30
2019-05-19T07:44:07.151Z,18.40
2019-05-19T07:46:37.312Z,15.77
2019-05-19T07:49:07.569Z,15.03
2019-05-19T07:51:36.431Z,16.27
2019-05-19T07:54:05.323Z,14.60
2019-05-19T07:56:34.248Z,12.90
2019-05-19T07:59:03.181Z,13.40
2019-05-19T08:01:31.986Z,13.13
2019-05-19T08:04:00.809Z,13.40
2019-05-19T08:06:29.596Z,13.13
2019-05-19T08:08:59.871Z,12.20
2019-05-19T08:11:30.041Z,12.87
2019-05-19T08:13:59.372Z,12.00
2019-05-19T08:16:28.192Z,11.23
2019-05-19T08:18:57.010Z,12.87
2019-05-19T08:21:25.812Z,11.10
2019-05-19T08:24:00.487Z,11.47
2019-05-19T08:26:26.213Z,11.73
2019-05-19T08:28:55.105Z,12.03
2019-05-19T08:31:24.026Z,10.73
2019-05-19T08:33:52.868Z,10.97
2019-05-19T08:36:21.750Z,10.97
2019-05-19T08:38:50.592Z,11.37
2019-05-19T08:41:19.480Z,12.77
2019-05-19T08:43:48.319Z,10.67
2019-05-19T08:46:17.865Z,10.37
2019-05-19T08:48:46.637Z,12.60
2019-05-19T08:51:15.524Z,11.70
2019-05-19T08:53:44.912Z,12.57
2019-05-19T08:56:16.354Z,12.83
2019-05-19T08:58:45.222Z,13.60
2019-05-19T09:01:14.095Z,13.67
2019-05-19T09:03:44.252Z,14.07
2019-05-19T09:06:13.112Z,13.60
2019-05-19T09:08:41.875Z,14.00
2019-05-19T09:11:10.901Z,14.10
2019-05-19T09:13:41.464Z,13.40
2019-05-19T09:16:10.548Z,14.43
2019-05-19T09:18:39.410Z,14.60
2019-05-19T09:21:09.688Z,13.77
2019-05-19T09:23:38.475Z,13.70
2019-05-19T09:26:08.844Z,14.07
2019-05-19T09:28:37.624Z,12.50
2019-05-19T09:31:08.075Z,13.03
2019-05-19T09:33:36.839Z,12.10
2019-05-19T09:36:05.782Z,12.10
2019-05-19T09:38:36.184Z,13.20
2019-05-19T09:41:05.658Z,12.90
2019-05-19T09:43:34.459Z,13.10
2019-05-19T09:46:05.622Z,12.87
2019-05-19T09:48:34.608Z,13.40
2019-05-19T09:51:03.521Z,14.00
2019-05-19T09:53:32.368Z,14.27
2019-05-19T09:56:01.248Z,15.37
2019-05-19T09:58:30.116Z,13.53
2019-05-19T10:00:59.143Z,14.97
2019-05-19T10:03:28.009Z,14.70
2019-05-19T10:05:56.924Z,15.67
2019-05-19T10:08:27.275Z,14.97
2019-05-19T10:10:58.821Z,14.13
2019-05-19T10:13:27.742Z,15.73
2019-05-19T10:15:57.092Z,13.80
2019-05-19T10:18:25.964Z,13.60
2019-05-19T10:20:54.764Z,13.43
2019-05-19T10:23:23.599Z,13.93
2019-05-19T10:25:52.412Z,13.10
2019-05-19T10:28:21.251Z,12.80
2019-05-19T10:30:51.559Z,12.63
2019-05-19T10:33:21.715Z,12.03
2019-05-19T10:35:51.301Z,12.50
2019-05-19T10:38:20.186Z,12.93
2019-05-19T10:40:49.015Z,13.80
2019-05-19T10:43:17.800Z,13.50
2019-05-19T10:45:48.183Z,12.40
2019-05-19T10:48:17.041Z,12.53
2019-05-19T10:50:46.619Z,12.57
2019-05-19T10:53:15.725Z,13.10
2019-05-19T10:55:44.620Z,11.80
2019-05-19T10:58:13.497Z,11.97
2019-05-19T11:00:42.416Z,12.67
2019-05-19T11:03:11.302Z,10.20
2019-05-19T11:05:40.127Z,9.97
2019-05-19T11:08:08.859Z,10.17
2019-05-19T11:10:37.742Z,10.13
2019-05-19T11:13:06.502Z,11.97
2019-05-19T11:15:35.429Z,9.50
2019-05-19T11:18:06.472Z,9.70
2019-05-19T11:20:34.893Z,11.10
2019-05-19T11:23:03.717Z,9.10
2019-05-19T11:25:34.313Z,7.57
2019-05-19T11:28:02.999Z,8.30
2019-05-19T11:30:31.926Z,7.40
2019-05-19T11:33:00.691Z,7.23
2019-05-19T11:35:29.565Z,8.20
2019-05-19T11:37:59.005Z,7.10
2019-05-19T11:40:27.889Z,7.10
2019-05-19T11:42:56.713Z,6.40
2019-05-19T11:45:25.576Z,5.67
2019-05-19T11:47:55.833Z,6.57
2019-05-19T11:50:26.261Z,6.17
2019-05-19T11:52:56.275Z,7.40
2019-05-19T11:55:25.171Z,6.20
2019-05-19T11:57:54.039Z,5.97
2019-05-19T12:00:22.916Z,6.00
2019-05-19T12:02:51.770Z,6.07
2019-05-19T12:05:20.698Z,5.80
2019-05-19T12:07:50.347Z,6.27
2019-05-19T12:10:19.725Z,7.30
2019-05-19T12:12:48.644Z,7.00
2019-05-19T12:15:18.835Z,7.30
2019-05-19T12:17:47.731Z,6.50
2019-05-19T12:20:16.756Z,7.07
2019-05-19T12:22:46.656Z,9.53
2019-05-19T12:25:15.914Z,10.03
2019-05-19T12:27:44.718Z,11.20
2019-05-19T12:30:19.095Z,12.00
2019-05-19T12:32:48.336Z,12.27
2019-05-19T12:35:17.785Z,11.70
2019-05-19T12:37:47.455Z,12.47
2019-05-19T12:40:16.340Z,13.43
2019-05-19T12:42:45.319Z,13.80
2019-05-19T12:45:15.092Z,12.53
2019-05-19T12:47:43.909Z,11.03
2019-05-19T12:50:13.185Z,13.67
2019-05-19T12:52:42.157Z,13.57
2019-05-19T12:55:11.879Z,13.83
2019-05-19T12:57:40.841Z,13.90
2019-05-19T13:00:10.076Z,13.53
2019-05-19T13:02:38.877Z,11.67
2019-05-19T13:05:08.196Z,11.40
2019-05-19T13:07:37.095Z,11.43
2019-05-19T13:10:09.425Z,11.00
2019-05-19T13:12:38.317Z,12.73
2019-05-19T13:15:10.228Z,15.03
2019-05-19T13:17:39.042Z,17.40
2019-05-19T13:20:08.994Z,18.40
2019-05-19T13:22:38.073Z,18.30
2019-05-19T13:25:07.600Z,20.45
2019-05-19T13:27:36.358Z,20.60
2019-05-19T13:30:07.994Z,19.80
2019-05-19T13:32:36.887Z,21.83
2019-05-19T13:35:06.842Z,19.57
2019-05-19T13:37:35.632Z,19.57
2019-05-19T13:40:06.766Z,20.90
2019-05-19T13:42:35.564Z,18.00
2019-05-19T13:45:06.996Z,16.83
2019-05-19T13:47:36.159Z,14.27
2019-05-19T13:50:07.395Z,16.17
2019-05-19T13:52:36.202Z,21.67
2019-05-19T13:55:09.171Z,5.57
2019-05-19T13:57:39.551Z,5.53
2019-05-19T14:00:10.597Z,5.83
2019-05-19T14:02:39.964Z,7.67
2019-05-19T14:05:08.952Z,6.40
2019-05-19T14:07:37.892Z,10.20
2019-05-19T14:10:07.850Z,10.33
2019-05-19T14:12:36.778Z,9.80
2019-05-19T14:15:08.349Z,6.57
2019-05-19T14:17:41.970Z,6.00
2019-05-19T14:20:13.560Z,7.40
2019-05-19T14:22:42.573Z,6.80
2019-05-19T14:25:11.635Z,7.63
2019-05-19T14:27:40.479Z,7.60
2019-05-19T14:30:10.923Z,5.57
2019-05-19T14:32:39.909Z,6.70
2019-05-19T14:35:08.828Z,6.07
2019-05-19T14:37:38.431Z,6.43
2019-05-19T14:40:08.396Z,6.10
2019-05-19T14:42:40.040Z,6.30
2019-05-19T14:45:10.446Z,5.97
2019-05-19T14:47:39.327Z,7.03
2019-05-19T14:50:08.863Z,6.80
2019-05-19T14:52:37.816Z,6.50
2019-05-19T14:55:08.244Z,7.50
2019-05-19T14:57:44.872Z,6.43
2019-05-19T15:00:10.085Z,7.13
2019-05-19T15:02:38.967Z,7.10
2019-05-19T15:05:08.114Z,6.30
2019-05-19T15:07:40.613Z,7.47
2019-05-19T15:10:10.181Z,5.20
2019-05-19T15:12:38.969Z,5.90
2019-05-19T15:15:10.051Z,5.70
2019-05-19T15:17:39.527Z,6.67
2019-05-19T15:20:09.097Z,5.53
2019-05-19T15:22:38.002Z,5.27
2019-05-19T15:25:08.591Z,5.70
2019-05-19T15:27:37.518Z,6.43
2019-05-19T15:30:12.901Z,6.83
2019-05-19T15:32:39.412Z,5.90
2019-05-19T15:35:08.514Z,5.63
2019-05-19T15:37:37.362Z,6.20
2019-05-19T15:40:08.189Z,6.17
2019-05-19T15:42:36.963Z,6.23
2019-05-19T15:45:06.930Z,6.60
2019-05-19T15:47:35.829Z,6.43
2019-05-19T15:50:06.887Z,6.33
2019-05-19T15:52:35.768Z,6.87
2019-05-19T15:55:05.854Z,6.50
2019-05-19T15:57:35.156Z,6.37
2019-05-19T16:00:06.584Z,6.33
2019-05-19T16:02:35.494Z,6.20
2019-05-19T16:05:06.900Z,5.80
2019-05-19T16:07:35.760Z,6.33
2019-05-19T16:10:07.988Z,6.90
2019-05-19T16:12:36.861Z,10.17
2019-05-19T16:15:07.869Z,7.00
2019-05-19T16:17:36.844Z,7.13
2019-05-19T16:20:06.989Z,6.67
2019-05-19T16:22:35.852Z,7.03
2019-05-19T16:25:16.622Z,6.60
2019-05-19T16:30:25.803Z,8.10
2019-05-19T16:32:54.663Z,6.40
2019-05-19T16:35:23.469Z,7.60
2019-05-19T16:37:52.388Z,7.50
2019-05-19T16:40:21.877Z,8.10
2019-05-19T16:42:50.844Z,7.90
2019-05-19T16:45:20.419Z,8.40
2019-05-19T16:47:49.280Z,7.23
2019-05-19T16:50:18.499Z,6.90
2019-05-19T16:52:47.399Z,7.07
2019-05-19T16:55:18.097Z,7.93
2019-05-19T16:57:46.920Z,7.53
2019-05-19T17:00:17.726Z,7.90
2019-05-19T17:02:47.037Z,7.90
2019-05-19T17:05:16.815Z,6.93
2019-05-19T17:07:45.681Z,7.47
2019-05-19T17:10:15.169Z,7.97
2019-05-19T17:12:45.028Z,8.17
2019-05-19T17:15:14.373Z,7.60
2019-05-19T17:17:43.302Z,7.63
2019-05-19T17:20:13.569Z,8.00
2019-05-19T17:22:42.465Z,8.73
2019-05-19T17:25:11.887Z,7.33
2019-05-19T17:27:41.706Z,7.23
2019-05-19T17:30:12.630Z,7.20
2019-05-19T17:32:41.452Z,7.17
2019-05-19T17:35:10.842Z,7.57
2019-05-19T17:37:39.749Z,7.00
2019-05-19T17:40:10.598Z,7.30
2019-05-19T17:42:40.418Z,7.27
2019-05-19T17:45:10.254Z,7.07
2019-05-19T17:47:39.441Z,7.43
2019-05-19T17:50:09.369Z,7.90
2019-05-19T17:52:38.187Z,7.13
2019-05-19T22:33:18.555Z,18.00
2019-05-19T22:35:47.442Z,18.27
2019-05-19T22:38:16.210Z,18.93
2019-05-19T22:40:45.083Z,20.80
2019-05-19T22:43:14.159Z,21.67
2019-05-19T22:45:43.166Z,21.97
2019-05-19T22:48:12.019Z,21.57
2019-05-19T22:50:41.042Z,22.53
2019-05-19T22:53:10.195Z,22.40
2019-05-19T22:55:38.940Z,22.40
2019-05-19T22:58:07.881Z,23.33
2019-05-19T23:00:37.415Z,23.50
2019-05-19T23:03:06.248Z,22.10
2019-05-19T23:05:35.181Z,22.13
2019-05-19T23:08:04.204Z,22.17
2019-05-19T23:10:33.018Z,22.03
2019-05-19T23:13:01.830Z,21.53
2019-05-19T23:15:30.681Z,21.30
2019-05-19T23:17:59.544Z,22.50
2019-05-19T23:20:28.438Z,23.90
2019-05-19T23:22:57.272Z,21.87
2019-05-19T23:25:26.649Z,22.60
2019-05-19T23:27:55.462Z,23.07
2019-05-19T23:30:24.371Z,21.53
2019-05-19T23:32:57.626Z,22.60
2019-05-19T23:35:26.503Z,22.77
2019-05-19T23:37:55.381Z,22.73
2019-05-19T23:40:24.306Z,23.67
2019-05-19T23:42:53.044Z,24.37
2019-05-19T23:45:21.843Z,24.23
2019-05-19T23:47:50.588Z,25.90
2019-05-19T23:50:19.529Z,25.87
2019-05-19T23:52:48.341Z,26.27
2019-05-19T23:55:17.215Z,25.93
2019-05-19T23:57:46.021Z,26.37
